sensor_id;sensor_type;location;lat;lon;timestamp;pressure;altitude;pressure_sealevel;temperature;humidity
77311;BME280;66371;52.714;5.074;2023-04-19T11:07:03;102984.16;;;12.13;45.39
77311;BME280;66371;52.714;5.074;2023-04-19T11:09:31;102977.38;;;12.20;46.65
77311;BME280;66371;52.714;5.074;2023-04-19T11:12:12;102991.66;;;12.43;46.70
77311;BME280;66371;52.714;5.074;2023-04-19T11:14:42;102997.06;;;12.65;48.83
77311;BME280;66371;52.714;5.074;2023-04-19T11:17:25;102993.03;;;12.59;47.61
77311;BME280;66371;52.714;5.074;2023-04-19T11:20:00;102982.03;;;12.40;47.92
77311;BME280;66371;52.714;5.074;2023-04-19T11:25:16;102978.50;;;12.39;47.97
77311;BME280;66371;52.714;5.074;2023-04-19T11:27:52;102961.66;;;12.37;48.51
77311;BME280;66371;52.714;5.074;2023-04-19T11:30:20;102972.66;;;12.46;48.50
77311;BME280;66371;52.714;5.074;2023-04-19T11:32:51;102967.28;;;12.46;48.11
77311;BME280;66371;52.714;5.074;2023-04-19T11:35:25;102949.50;;;12.45;47.62
77311;BME280;66371;52.714;5.074;2023-04-19T11:37:52;102977.16;;;12.56;47.69
77311;BME280;66371;52.714;5.074;2023-04-19T11:40:19;102968.88;;;12.59;47.97
77311;BME280;66371;52.714;5.074;2023-04-19T11:42:45;102969.72;;;12.49;45.82
77311;BME280;66371;52.714;5.074;2023-04-19T11:45:12;102949.34;;;12.24;44.13
77311;BME280;66371;52.714;5.074;2023-04-19T11:47:48;102965.72;;;12.43;47.22
77311;BME280;66371;52.714;5.074;2023-04-19T11:53:19;102961.44;;;12.52;49.05
77311;BME280;66371;52.714;5.074;2023-04-19T11:55:51;102956.06;;;12.40;49.78
77311;BME280;66371;52.714;5.074;2023-04-19T12:00:49;102960.34;;;12.65;49.34
77311;BME280;66371;52.714;5.074;2023-04-19T12:03:15;102963.03;;;12.65;48.63
77311;BME280;66371;52.714;5.074;2023-04-19T12:05:54;102951.31;;;12.55;48.02
77311;BME280;66371;52.714;5.074;2023-04-19T12:08:34;102937.28;;;12.52;48.44
77311;BME280;66371;52.714;5.074;2023-04-19T12:11:02;102935.72;;;12.49;47.61
77311;BME280;66371;52.714;5.074;2023-04-19T12:13:29;102930.94;;;12.64;49.03
77311;BME280;66371;52.714;5.074;2023-04-19T12:15:56;102927.16;;;12.77;50.36
77311;BME280;66371;52.714;5.074;2023-04-19T12:18:22;102922.25;;;12.93;48.84
77311;BME280;66371;52.714;5.074;2023-04-19T12:20:49;102913.22;;;12.83;46.48
77311;BME280;66371;52.714;5.074;2023-04-19T12:23:16;102906.91;;;12.84;47.76
77311;BME280;66371;52.714;5.074;2023-04-19T12:25:43;102913.59;;;12.90;46.00
77311;BME280;66371;52.714;5.074;2023-04-19T12:28:09;102923.94;;;12.94;47.58
77311;BME280;66371;52.714;5.074;2023-04-19T12:30:35;102911.63;;;13.03;47.62
77311;BME280;66371;52.714;5.074;2023-04-19T12:33:01;102903.91;;;13.20;48.11
77311;BME280;66371;52.714;5.074;2023-04-19T12:35:28;102915.06;;;13.36;48.07
77311;BME280;66371;52.714;5.074;2023-04-19T12:37:55;102903.53;;;13.14;46.23
77311;BME280;66371;52.714;5.074;2023-04-19T12:40:22;102906.84;;;13.17;45.12
77311;BME280;66371;52.714;5.074;2023-04-19T12:42:49;102921.63;;;13.12;46.49
77311;BME280;66371;52.714;5.074;2023-04-19T12:45:16;102917.34;;;13.09;45.97
77311;BME280;66371;52.714;5.074;2023-04-19T12:47:47;102907.97;;;13.04;46.93
77311;BME280;66371;52.714;5.074;2023-04-19T12:50:14;102908.50;;;13.29;47.93
77311;BME280;66371;52.714;5.074;2023-04-19T12:52:41;102901.19;;;13.31;47.97
77311;BME280;66371;52.714;5.074;2023-04-19T12:55:08;102903.28;;;13.17;48.66
77311;BME280;66371;52.714;5.074;2023-04-19T12:57:33;102904.19;;;13.06;48.44
77311;BME280;66371;52.714;5.074;2023-04-19T13:00:03;102902.22;;;13.08;49.37
77311;BME280;66371;52.714;5.074;2023-04-19T13:02:30;102893.91;;;13.11;50.66
77311;BME280;66371;52.714;5.074;2023-04-19T13:04:55;102880.63;;;13.10;49.77
77311;BME280;66371;52.714;5.074;2023-04-19T13:07:21;102899.84;;;13.26;52.22
77311;BME280;66371;52.714;5.074;2023-04-19T13:09:46;102866.41;;;12.76;49.01
77311;BME280;66371;52.714;5.074;2023-04-19T13:12:12;102873.81;;;12.84;50.74
77311;BME280;66371;52.714;5.074;2023-04-19T13:14:37;102869.78;;;12.89;49.91
77311;BME280;66371;52.714;5.074;2023-04-19T13:17:03;102864.50;;;13.10;49.80
77311;BME280;66371;52.714;5.074;2023-04-19T13:19:33;102868.88;;;13.11;50.28
77311;BME280;66371;52.714;5.074;2023-04-19T13:21:59;102856.06;;;13.14;50.70
77311;BME280;66371;52.714;5.074;2023-04-19T13:24:24;102866.38;;;12.87;46.62
77311;BME280;66371;52.714;5.074;2023-04-19T13:26:51;102854.53;;;13.01;48.59
77311;BME280;66371;52.714;5.074;2023-04-19T13:29:16;102848.31;;;13.00;48.81
77311;BME280;66371;52.714;5.074;2023-04-19T13:31:42;102853.66;;;12.89;50.95
77311;BME280;66371;52.714;5.074;2023-04-19T13:34:07;102850.16;;;12.89;52.04
77311;BME280;66371;52.714;5.074;2023-04-19T13:36:33;102838.03;;;12.94;52.41
77311;BME280;66371;52.714;5.074;2023-04-19T13:38:59;102835.19;;;12.75;52.00
77311;BME280;66371;52.714;5.074;2023-04-19T13:41:24;102841.63;;;12.73;53.02
77311;BME280;66371;52.714;5.074;2023-04-19T13:43:50;102829.47;;;12.69;51.49
77311;BME280;66371;52.714;5.074;2023-04-19T13:46:15;102824.09;;;12.58;52.82
77311;BME280;66371;52.714;5.074;2023-04-19T13:48:41;102843.38;;;12.74;53.19
77311;BME280;66371;52.714;5.074;2023-04-19T13:51:06;102822.19;;;12.91;53.31
77311;BME280;66371;52.714;5.074;2023-04-19T13:53:32;102844.81;;;12.78;50.77
77311;BME280;66371;52.714;5.074;2023-04-19T13:56:04;102802.97;;;12.75;52.02
77311;BME280;66371;52.714;5.074;2023-04-19T13:58:33;102829.94;;;12.74;52.34
77311;BME280;66371;52.714;5.074;2023-04-19T14:00:59;102818.09;;;12.65;50.94
77311;BME280;66371;52.714;5.074;2023-04-19T14:03:24;102817.16;;;12.55;51.50
77311;BME280;66371;52.714;5.074;2023-04-19T14:05:50;102809.22;;;12.65;53.07
77311;BME280;66371;52.714;5.074;2023-04-19T14:08:16;102820.19;;;12.62;52.26
77311;BME280;66371;52.714;5.074;2023-04-19T14:10:41;102794.47;;;12.48;51.30
77311;BME280;66371;52.714;5.074;2023-04-19T14:13:08;102805.97;;;12.39;51.42
77311;BME280;66371;52.714;5.074;2023-04-19T14:15:35;102806.19;;;12.47;54.66
77311;BME280;66371;52.714;5.074;2023-04-19T14:18:10;102813.47;;;12.67;53.97
77311;BME280;66371;52.714;5.074;2023-04-19T14:20:36;102791.03;;;12.57;53.17
77311;BME280;66371;52.714;5.074;2023-04-19T14:23:01;102784.19;;;12.75;53.21
77311;BME280;66371;52.714;5.074;2023-04-19T14:25:31;102790.44;;;12.65;53.18
77311;BME280;66371;52.714;5.074;2023-04-19T14:27:57;102786.66;;;12.67;53.90
77311;BME280;66371;52.714;5.074;2023-04-19T14:30:23;102795.47;;;12.47;53.99
77311;BME280;66371;52.714;5.074;2023-04-19T14:32:50;102785.69;;;12.57;54.55
77311;BME280;66371;52.714;5.074;2023-04-19T14:35:16;102784.00;;;12.45;55.78
77311;BME280;66371;52.714;5.074;2023-04-19T14:37:41;102783.31;;;12.43;55.37
77311;BME280;66371;52.714;5.074;2023-04-19T14:40:08;102796.41;;;12.57;55.90
77311;BME280;66371;52.714;5.074;2023-04-19T14:42:35;102781.06;;;12.48;55.92
77311;BME280;66371;52.714;5.074;2023-04-19T14:45:01;102777.94;;;12.32;57.20
77311;BME280;66371;52.714;5.074;2023-04-19T14:47:28;102776.44;;;12.50;58.19
77311;BME280;66371;52.714;5.074;2023-04-19T14:49:54;102760.81;;;12.66;57.67
77311;BME280;66371;52.714;5.074;2023-04-19T14:52:23;102773.25;;;12.56;56.98
77311;BME280;66371;52.714;5.074;2023-04-19T14:54:50;102754.44;;;12.24;56.71
77311;BME280;66371;52.714;5.074;2023-04-19T14:57:26;102761.88;;;12.10;53.70
77311;BME280;66371;52.714;5.074;2023-04-19T14:59:55;102764.66;;;12.19;55.58
77311;BME280;66371;52.714;5.074;2023-04-19T15:02:25;102764.53;;;12.32;56.46
77311;BME280;66371;52.714;5.074;2023-04-19T15:04:51;102721.66;;;12.10;57.50
77311;BME280;66371;52.714;5.074;2023-04-19T15:07:19;102762.38;;;12.15;55.56
77311;BME280;66371;52.714;5.074;2023-04-19T15:09:47;102748.94;;;12.26;57.04
77311;BME280;66371;52.714;5.074;2023-04-19T15:12:13;102751.88;;;12.34;55.91
77311;BME280;66371;52.714;5.074;2023-04-19T15:14:41;102746.16;;;12.05;55.06
77311;BME280;66371;52.714;5.074;2023-04-19T15:17:11;102754.81;;;12.20;55.73
77311;BME280;66371;52.714;5.074;2023-04-19T15:19:37;102739.94;;;12.16;56.45
77311;BME280;66371;52.714;5.074;2023-04-19T15:22:04;102745.66;;;12.11;55.86
77311;BME280;66371;52.714;5.074;2023-04-19T15:24:33;102730.69;;;11.98;55.31
77311;BME280;66371;52.714;5.074;2023-04-19T15:27:00;102730.09;;;11.94;55.39
77311;BME280;66371;52.714;5.074;2023-04-19T15:29:26;102747.50;;;12.00;54.72
77311;BME280;66371;52.714;5.074;2023-04-19T15:31:51;102733.13;;;12.01;54.69
77311;BME280;66371;52.714;5.074;2023-04-19T15:34:18;102743.03;;;12.00;54.28
77311;BME280;66371;52.714;5.074;2023-04-19T15:36:43;102737.66;;;12.00;54.12
77311;BME280;66371;52.714;5.074;2023-04-19T15:39:11;102738.25;;;12.04;54.54
77311;BME280;66371;52.714;5.074;2023-04-19T15:41:37;102736.28;;;12.06;52.98
77311;BME280;66371;52.714;5.074;2023-04-19T15:44:03;102734.47;;;11.95;53.26
77311;BME280;66371;52.714;5.074;2023-04-19T15:46:32;102749.81;;;12.04;57.18
77311;BME280;66371;52.714;5.074;2023-04-19T15:49:04;102728.63;;;12.01;58.63
77311;BME280;66371;52.714;5.074;2023-04-19T15:51:38;102720.34;;;11.93;57.57
77311;BME280;66371;52.714;5.074;2023-04-19T15:54:04;102727.19;;;11.97;57.12
77311;BME280;66371;52.714;5.074;2023-04-19T15:56:32;102730.34;;;11.91;55.16
77311;BME280;66371;52.714;5.074;2023-04-19T15:58:58;102737.91;;;11.97;57.70
77311;BME280;66371;52.714;5.074;2023-04-19T16:01:23;102736.19;;;11.96;58.57
77311;BME280;66371;52.714;5.074;2023-04-19T16:03:52;102723.41;;;11.67;58.50
77311;BME280;66371;52.714;5.074;2023-04-19T16:06:18;102733.53;;;11.74;59.04
77311;BME280;66371;52.714;5.074;2023-04-19T16:08:48;102738.75;;;11.76;57.91
77311;BME280;66371;52.714;5.074;2023-04-19T16:11:22;102725.59;;;11.73;56.11
77311;BME280;66371;52.714;5.074;2023-04-19T16:13:52;102729.03;;;11.64;57.14
77311;BME280;66371;52.714;5.074;2023-04-19T16:16:17;102732.41;;;11.66;57.97
77311;BME280;66371;52.714;5.074;2023-04-19T16:18:43;102737.63;;;11.56;57.29
77311;BME280;66371;52.714;5.074;2023-04-19T16:21:20;102732.88;;;11.49;57.03
77311;BME280;66371;52.714;5.074;2023-04-19T16:23:46;102721.19;;;11.50;56.05
77311;BME280;66371;52.714;5.074;2023-04-19T16:26:11;102737.38;;;11.59;56.44
77311;BME280;66371;52.714;5.074;2023-04-19T16:28:37;102733.31;;;11.43;55.44
77311;BME280;66371;52.714;5.074;2023-04-19T16:31:03;102722.63;;;11.43;56.75
77311;BME280;66371;52.714;5.074;2023-04-19T16:33:29;102690.97;;;11.37;57.62
77311;BME280;66371;52.714;5.074;2023-04-19T16:35:54;102723.13;;;11.48;58.23
77311;BME280;66371;52.714;5.074;2023-04-19T16:38:19;102719.81;;;11.44;58.52
77311;BME280;66371;52.714;5.074;2023-04-19T16:40:45;102708.78;;;11.49;59.35
77311;BME280;66371;52.714;5.074;2023-04-19T16:43:12;102696.56;;;11.45;59.00
77311;BME280;66371;52.714;5.074;2023-04-19T16:45:38;102701.66;;;11.37;58.14
77311;BME280;66371;52.714;5.074;2023-04-19T16:48:04;102710.44;;;11.28;58.10
77311;BME280;66371;52.714;5.074;2023-04-19T16:50:30;102711.75;;;11.22;56.71
77311;BME280;66371;52.714;5.074;2023-04-19T16:52:56;102706.78;;;11.18;56.11
77311;BME280;66371;52.714;5.074;2023-04-19T16:55:24;102702.41;;;11.17;57.57
77311;BME280;66371;52.714;5.074;2023-04-19T16:57:49;102701.16;;;11.10;58.39
77311;BME280;66371;52.714;5.074;2023-04-19T17:00:15;102719.16;;;11.08;56.12
77311;BME280;66371;52.714;5.074;2023-04-19T17:02:41;102710.16;;;11.09;57.51
77311;BME280;66371;52.714;5.074;2023-04-19T17:05:07;102709.28;;;11.08;57.51
77311;BME280;66371;52.714;5.074;2023-04-19T17:07:33;102705.28;;;11.03;56.35
77311;BME280;66371;52.714;5.074;2023-04-19T17:09:59;102719.28;;;11.06;56.70
77311;BME280;66371;52.714;5.074;2023-04-19T17:12:25;102709.88;;;11.01;55.46
77311;BME280;66371;52.714;5.074;2023-04-19T17:14:50;102714.97;;;10.93;56.78
77311;BME280;66371;52.714;5.074;2023-04-19T17:17:16;102717.16;;;10.88;56.62
77311;BME280;66371;52.714;5.074;2023-04-19T17:19:45;102708.16;;;10.89;57.34
77311;BME280;66371;52.714;5.074;2023-04-19T17:22:13;102700.53;;;10.95;57.06
77311;BME280;66371;52.714;5.074;2023-04-19T17:24:39;102666.56;;;10.85;56.78
77311;BME280;66371;52.714;5.074;2023-04-19T17:27:04;102698.06;;;10.92;57.13
77311;BME280;66371;52.714;5.074;2023-04-19T17:29:30;102679.47;;;10.91;57.84
77311;BME280;66371;52.714;5.074;2023-04-19T17:31:57;102691.75;;;10.93;57.41
77311;BME280;66371;52.714;5.074;2023-04-19T17:34:22;102692.84;;;10.91;56.52
77311;BME280;66371;52.714;5.074;2023-04-19T17:36:48;102700.75;;;10.92;57.41
77311;BME280;66371;52.714;5.074;2023-04-19T17:39:13;102688.44;;;10.90;56.64
77311;BME280;66371;52.714;5.074;2023-04-19T17:41:40;102696.97;;;10.95;56.71
77311;BME280;66371;52.714;5.074;2023-04-19T17:44:05;102683.47;;;10.96;57.07
77311;BME280;66371;52.714;5.074;2023-04-19T17:46:31;102695.16;;;10.95;57.41
77311;BME280;66371;52.714;5.074;2023-04-19T17:48:57;102699.53;;;10.96;57.31
77311;BME280;66371;52.714;5.074;2023-04-19T17:51:22;102698.09;;;11.03;57.67
77311;BME280;66371;52.714;5.074;2023-04-19T17:53:48;102695.13;;;10.84;57.70
77311;BME280;66371;52.714;5.074;2023-04-19T17:56:13;102696.47;;;10.79;58.29
77311;BME280;66371;52.714;5.074;2023-04-19T17:58:39;102687.91;;;10.74;57.90
77311;BME280;66371;52.714;5.074;2023-04-19T18:01:05;102696.53;;;10.66;57.89
77311;BME280;66371;52.714;5.074;2023-04-19T18:03:32;102696.34;;;10.56;59.05
77311;BME280;66371;52.714;5.074;2023-04-19T18:05:58;102684.44;;;10.49;59.71
77311;BME280;66371;52.714;5.074;2023-04-19T18:08:23;102683.69;;;10.47;60.09
77311;BME280;66371;52.714;5.074;2023-04-19T18:10:49;102693.25;;;10.39;59.82
77311;BME280;66371;52.714;5.074;2023-04-19T18:13:15;102690.41;;;10.29;60.85
77311;BME280;66371;52.714;5.074;2023-04-19T18:15:40;102675.75;;;10.22;60.74
77311;BME280;66371;52.714;5.074;2023-04-19T18:18:05;102673.44;;;10.18;61.39
77311;BME280;66371;52.714;5.074;2023-04-19T18:20:31;102694.66;;;10.08;62.71
77311;BME280;66371;52.714;5.074;2023-04-19T18:22:56;102689.31;;;9.96;62.90
77311;BME280;66371;52.714;5.074;2023-04-19T18:25:24;102696.91;;;9.89;62.11
77311;BME280;66371;52.714;5.074;2023-04-19T18:27:49;102686.34;;;9.75;62.65
77311;BME280;66371;52.714;5.074;2023-04-19T18:30:14;102684.44;;;9.77;63.80
77311;BME280;66371;52.714;5.074;2023-04-19T18:32:40;102684.44;;;9.77;63.06
77311;BME280;66371;52.714;5.074;2023-04-19T18:35:07;102691.91;;;9.72;62.60
77311;BME280;66371;52.714;5.074;2023-04-19T18:37:35;102699.34;;;9.56;63.82
77311;BME280;66371;52.714;5.074;2023-04-19T18:40:01;102699.97;;;9.60;65.30
77311;BME280;66371;52.714;5.074;2023-04-19T18:42:29;102705.00;;;9.52;65.83
77311;BME280;66371;52.714;5.074;2023-04-19T18:44:55;102710.88;;;9.44;66.96
77311;BME280;66371;52.714;5.074;2023-04-19T18:47:21;102705.66;;;9.43;67.63
77311;BME280;66371;52.714;5.074;2023-04-19T18:49:46;102713.75;;;9.41;67.60
77311;BME280;66371;52.714;5.074;2023-04-19T18:52:12;102715.69;;;9.39;66.55
77311;BME280;66371;52.714;5.074;2023-04-19T18:54:39;102712.78;;;9.30;67.21
77311;BME280;66371;52.714;5.074;2023-04-19T18:57:04;102719.97;;;9.29;67.56
77311;BME280;66371;52.714;5.074;2023-04-19T18:59:30;102725.41;;;9.28;68.35
77311;BME280;66371;52.714;5.074;2023-04-19T19:01:55;102717.50;;;9.26;68.47
77311;BME280;66371;52.714;5.074;2023-04-19T19:04:22;102720.38;;;9.11;69.30
77311;BME280;66371;52.714;5.074;2023-04-19T19:06:49;102722.72;;;9.15;68.69
77311;BME280;66371;52.714;5.074;2023-04-19T19:09:15;102721.34;;;9.10;68.18
77311;BME280;66371;52.714;5.074;2023-04-19T19:11:41;102723.38;;;9.19;67.90
77311;BME280;66371;52.714;5.074;2023-04-19T19:14:06;102732.31;;;9.18;69.32
77311;BME280;66371;52.714;5.074;2023-04-19T19:16:32;102733.50;;;9.14;69.31
77311;BME280;66371;52.714;5.074;2023-04-19T19:18:58;102728.25;;;9.12;68.91
77311;BME280;66371;52.714;5.074;2023-04-19T19:21:23;102734.47;;;9.13;68.71
77311;BME280;66371;52.714;5.074;2023-04-19T19:23:51;102722.16;;;9.10;68.33
77311;BME280;66371;52.714;5.074;2023-04-19T19:26:21;102719.72;;;9.07;68.31
77311;BME280;66371;52.714;5.074;2023-04-19T19:28:46;102732.09;;;9.08;68.27
77311;BME280;66371;52.714;5.074;2023-04-19T19:31:11;102719.94;;;9.04;68.41
77311;BME280;66371;52.714;5.074;2023-04-19T19:33:37;102721.72;;;9.04;68.90
77311;BME280;66371;52.714;5.074;2023-04-19T19:36:03;102734.22;;;9.03;68.90
77311;BME280;66371;52.714;5.074;2023-04-19T19:38:28;102736.69;;;9.06;68.99
77311;BME280;66371;52.714;5.074;2023-04-19T19:40:55;102724.28;;;9.05;67.93
77311;BME280;66371;52.714;5.074;2023-04-19T19:43:20;102730.81;;;9.01;68.50
77311;BME280;66371;52.714;5.074;2023-04-19T19:45:46;102732.72;;;8.99;69.06
77311;BME280;66371;52.714;5.074;2023-04-19T19:48:12;102745.84;;;9.02;68.17
77311;BME280;66371;52.714;5.074;2023-04-19T19:50:37;102741.38;;;9.03;68.38
77311;BME280;66371;52.714;5.074;2023-04-19T19:53:03;102740.81;;;8.98;68.99
77311;BME280;66371;52.714;5.074;2023-04-19T19:55:28;102729.53;;;8.94;69.26
77311;BME280;66371;52.714;5.074;2023-04-19T19:57:54;102733.53;;;8.87;68.39
77311;BME280;66371;52.714;5.074;2023-04-19T20:00:20;102734.41;;;8.87;69.22
77311;BME280;66371;52.714;5.074;2023-04-19T20:02:46;102754.25;;;8.83;69.73
77311;BME280;66371;52.714;5.074;2023-04-19T20:05:12;102762.56;;;8.79;69.84
77311;BME280;66371;52.714;5.074;2023-04-19T20:07:38;102744.00;;;8.77;69.19
77311;BME280;66371;52.714;5.074;2023-04-19T20:10:11;102738.41;;;8.68;67.98
77311;BME280;66371;52.714;5.074;2023-04-19T20:12:40;102759.13;;;8.77;67.57
77311;BME280;66371;52.714;5.074;2023-04-19T20:15:06;102747.91;;;8.72;67.99
77311;BME280;66371;52.714;5.074;2023-04-19T20:17:33;102752.50;;;8.70;67.87
77311;BME280;66371;52.714;5.074;2023-04-19T20:19:58;102764.06;;;8.83;67.08
77311;BME280;66371;52.714;5.074;2023-04-19T20:22:26;102753.38;;;8.83;65.99
77311;BME280;66371;52.714;5.074;2023-04-19T20:24:52;102761.84;;;8.89;65.30
77311;BME280;66371;52.714;5.074;2023-04-19T20:27:18;102768.84;;;8.78;67.06
77311;BME280;66371;52.714;5.074;2023-04-19T20:29:43;102740.88;;;8.71;67.31
77311;BME280;66371;52.714;5.074;2023-04-19T20:32:09;102768.41;;;8.71;67.46
77311;BME280;66371;52.714;5.074;2023-04-19T20:34:34;102772.22;;;8.67;67.88
77311;BME280;66371;52.714;5.074;2023-04-19T20:37:00;102771.84;;;8.59;68.40
77311;BME280;66371;52.714;5.074;2023-04-19T20:39:27;102771.44;;;8.53;68.93
77311;BME280;66371;52.714;5.074;2023-04-19T20:41:53;102767.03;;;8.52;67.18
77311;BME280;66371;52.714;5.074;2023-04-19T20:44:22;102780.16;;;8.55;66.74
77311;BME280;66371;52.714;5.074;2023-04-19T20:46:47;102772.03;;;8.44;67.60
77311;BME280;66371;52.714;5.074;2023-04-19T20:49:13;102780.75;;;8.46;66.18
77311;BME280;66371;52.714;5.074;2023-04-19T20:51:40;102763.94;;;8.45;66.25
77311;BME280;66371;52.714;5.074;2023-04-19T20:54:06;102770.47;;;8.54;64.10
77311;BME280;66371;52.714;5.074;2023-04-19T20:56:31;102762.34;;;8.55;63.67
77311;BME280;66371;52.714;5.074;2023-04-19T20:58:57;102775.63;;;8.43;65.67
77311;BME280;66371;52.714;5.074;2023-04-19T21:01:23;102774.06;;;8.26;66.29
77311;BME280;66371;52.714;5.074;2023-04-19T21:03:48;102769.88;;;8.22;65.73
77311;BME280;66371;52.714;5.074;2023-04-19T21:06:14;102767.97;;;8.10;66.37
77311;BME280;66371;52.714;5.074;2023-04-19T21:08:39;102765.84;;;8.15;66.39
77311;BME280;66371;52.714;5.074;2023-04-19T21:11:05;102770.75;;;8.09;67.64
77311;BME280;66371;52.714;5.074;2023-04-19T21:13:30;102764.06;;;8.02;67.03
77311;BME280;66371;52.714;5.074;2023-04-19T21:15:59;102762.66;;;8.10;64.59
77311;BME280;66371;52.714;5.074;2023-04-19T21:18:24;102769.97;;;8.07;63.98
77311;BME280;66371;52.714;5.074;2023-04-19T21:20:51;102763.97;;;8.03;63.79
77311;BME280;66371;52.714;5.074;2023-04-19T21:23:17;102777.38;;;8.02;64.77
77311;BME280;66371;52.714;5.074;2023-04-19T21:25:42;102775.97;;;7.96;64.96
77311;BME280;66371;52.714;5.074;2023-04-19T21:28:08;102776.84;;;7.97;65.72
77311;BME280;66371;52.714;5.074;2023-04-19T21:30:33;102766.81;;;8.00;65.64
77311;BME280;66371;52.714;5.074;2023-04-19T21:33:05;102773.50;;;7.93;66.12
77311;BME280;66371;52.714;5.074;2023-04-19T21:35:31;102767.88;;;7.84;66.74
77311;BME280;66371;52.714;5.074;2023-04-19T21:37:56;102766.84;;;7.86;65.75
77311;BME280;66371;52.714;5.074;2023-04-19T21:40:22;102769.06;;;7.80;66.37
77311;BME280;66371;52.714;5.074;2023-04-19T21:42:47;102774.66;;;7.75;66.53
77311;BME280;66371;52.714;5.074;2023-04-19T21:45:13;102770.16;;;7.76;65.03
77311;BME280;66371;52.714;5.074;2023-04-19T21:47:39;102763.53;;;7.69;65.97
77311;BME280;66371;52.714;5.074;2023-04-19T21:50:05;102769.63;;;7.71;66.96
77311;BME280;66371;52.714;5.074;2023-04-19T21:52:30;102760.00;;;7.68;66.48
77311;BME280;66371;52.714;5.074;2023-04-19T21:54:55;102763.44;;;7.70;67.03
77311;BME280;66371;52.714;5.074;2023-04-19T21:57:21;102774.66;;;7.61;67.70
77311;BME280;66371;52.714;5.074;2023-04-19T21:59:49;102776.63;;;7.58;68.54
77311;BME280;66371;52.714;5.074;2023-04-19T22:02:15;102763.22;;;7.45;68.77
77311;BME280;66371;52.714;5.074;2023-04-19T22:04:41;102775.09;;;7.40;69.33
77311;BME280;66371;52.714;5.074;2023-04-19T22:07:07;102772.63;;;7.37;69.34
77311;BME280;66371;52.714;5.074;2023-04-19T22:09:35;102759.13;;;7.40;69.49
77311;BME280;66371;52.714;5.074;2023-04-19T22:12:01;102763.31;;;7.44;69.33
77311;BME280;66371;52.714;5.074;2023-04-19T22:14:27;102762.19;;;7.48;67.62
77311;BME280;66371;52.714;5.074;2023-04-19T22:16:55;102763.31;;;7.44;67.91
77311;BME280;66371;52.714;5.074;2023-04-19T22:19:20;102773.22;;;7.42;67.27
77311;BME280;66371;52.714;5.074;2023-04-19T22:21:49;102771.09;;;7.33;68.36
77311;BME280;66371;52.714;5.074;2023-04-19T22:24:15;102771.00;;;7.34;68.12
77311;BME280;66371;52.714;5.074;2023-04-19T22:26:41;102775.09;;;7.40;68.35
77311;BME280;66371;52.714;5.074;2023-04-19T22:29:10;102771.66;;;7.38;68.45
77311;BME280;66371;52.714;5.074;2023-04-19T22:31:39;102762.06;;;7.35;67.34
77311;BME280;66371;52.714;5.074;2023-04-19T22:34:06;102769.56;;;7.29;67.66
77311;BME280;66371;52.714;5.074;2023-04-19T22:36:31;102764.78;;;7.19;67.45
77311;BME280;66371;52.714;5.074;2023-04-19T22:38:57;102762.22;;;7.18;67.34
77311;BME280;66371;52.714;5.074;2023-04-19T22:41:24;102762.69;;;7.10;67.87
